Saturday, August 29, 2015, 8:34 AM EDT

KNHK, Nas Patuxent River Md

Location: Patuxent River, MD, United States Lat: 38.3
Local Time: 8:34 AM EDT (12:34 GMT) Lon: -76.4
Time Zone: US/Eastern Elev: 39 ft

Show me the last for .
Show Decoded

2015-08-29 07:52 METAR KNHK 291152Z 00000KT 10SM FEW060 SCT250 21/18 A3023 RMK AO2 SLP236
                 T02110178 10211 20150 53013 =
2015-08-29 07:06 METAR KNHK 291106Z 22003KT 10SM SCT065 BKN250 18/16 A3021 RMK AO2 T01780161 =
2015-08-29 06:52 METAR KNHK 291052Z AUTO 00000KT 10SM FEW065 17/16 A3021 RMK AO2 SLP229 T01720161
                 =
2015-08-29 05:52 METAR KNHK 290952Z AUTO 00000KT 10SM CLR 16/14 A3020 RMK AO2 SLP225 T01560144 =
2015-08-29 04:52 METAR KNHK 290852Z AUTO 00000KT 10SM CLR 15/14 A3019 RMK AO2 SLP223 T01500139
                 56002 =
2015-08-29 03:52 METAR KNHK 290752Z AUTO 00000KT 10SM FEW065 16/14 A3019 RMK AO2 SLP223 T01560144
                 =
2015-08-29 02:52 METAR KNHK 290652Z AUTO 00000KT 10SM CLR 16/14 A3019 RMK AO2 SLP224 T01560139 =
2015-08-29 01:52 METAR KNHK 290552Z AUTO 00000KT 10SM CLR 16/14 A3020 RMK AO2 SLP225 T01610144
                 10222 20161 50002 =
2015-08-29 00:52 METAR KNHK 290452Z AUTO 19004KT 10SM FEW070 19/16 A3020 RMK AO2 SLP228 T01940161
                 402780144 =
2015-08-28 23:52 METAR KNHK 290352Z AUTO 20004KT 10SM CLR 20/16 A3020 RMK AO2 SLP226 T02000156 =
2015-08-28 22:52 METAR KNHK 290252Z 20005KT 10SM FEW250 19/14 A3019 RMK AO2 SLP224 T01940144
                 50015 =
2015-08-28 20:52 METAR KNHK 290052Z 18004KT 10SM FEW250 19/15 A3017 RMK AO2 SLP216 T01890150 =
2015-08-28 19:52 METAR KNHK 282352Z 17003KT 10SM FEW050 FEW250 22/15 A3015 RMK AO2 SLP209
                 T02220150 10278 20217 55002 =
2015-08-28 18:52 METAR KNHK 282252Z 13003KT 10SM FEW050 24/14 A3015 RMK AO2 SLP209 T02440144 =
2015-08-28 17:52 METAR KNHK 282152Z 00000KT 10SM FEW050 26/14 A3015 RMK AO2 SLP211 T02610139 =
2015-08-28 16:52 METAR KNHK 282052Z 08004KT 10SM FEW050 26/13 A3015 RMK AO2 SLP211 T02610133
                 56013 =
2015-08-28 15:52 METAR KNHK 281952Z 11007KT 10SM SCT050 26/14 A3016 RMK AO2 SLP214 T02560144 =
2015-08-28 14:52 METAR KNHK 281852Z 06007KT 030V090 10SM FEW050 27/14 A3018 RMK AO2 SLP219
                 T02670139 =
2015-08-28 13:52 METAR KNHK 281752Z COR 06006KT 10SM FEW050 27/13 A3019 RMK AO2 SLP224 T02670133
                 10272 20206 58008 =
2015-08-28 12:52 METAR KNHK 281652Z 04006KT 10SM FEW050 26/14 A3020 RMK AO2 SLP227 T02610139 =
2015-08-28 11:52 METAR KNHK 281552Z 02006KT 10SM FEW050 26/13 A3022 RMK AO2 SLP232 T02560133 =
2015-08-28 09:52 METAR KNHK 281352Z 04006KT 10SM FEW040 FEW060 FEW250 24/14 A3021 RMK AO2 SLP229
                 T02390144 =
2015-08-28 08:52 METAR KNHK 281252Z VRB05KT 10SM FEW250 23/16 A3019 RMK AO2 SLP223 T02280161 =

Support USWX by starting your Amazon purchase here.